createdAt,value
2022-10-17T00:09:38.786Z,13.70
2022-10-17T00:14:41.554Z,13.68
2022-10-17T00:19:44.331Z,13.68
2022-10-17T00:24:48.441Z,13.76
2022-10-17T00:29:51.913Z,13.74
2022-10-17T00:34:54.644Z,13.78
2022-10-17T00:39:59.402Z,13.84
2022-10-17T00:45:16.344Z,13.85
2022-10-17T00:50:20.480Z,13.84
2022-10-17T00:55:29.336Z,13.86
2022-10-17T01:00:32.644Z,13.83
2022-10-17T01:05:35.841Z,13.85
2022-10-17T01:10:49.448Z,13.79
2022-10-17T01:16:00.396Z,13.76
2022-10-17T01:21:41.216Z,13.81
2022-10-17T01:27:00.168Z,13.70
2022-10-17T01:32:09.870Z,13.77
2022-10-17T01:37:20.174Z,13.76
2022-10-17T01:42:28.645Z,13.73
2022-10-17T01:47:34.922Z,13.63
2022-10-17T01:52:43.869Z,13.64
2022-10-17T01:57:51.429Z,13.65
2022-10-17T02:03:00.030Z,13.61
2022-10-17T02:08:02.849Z,13.62
2022-10-17T02:13:16.245Z,13.59
2022-10-17T02:18:48.000Z,13.58
2022-10-17T02:23:56.067Z,13.55
2022-10-17T02:29:07.649Z,13.51
2022-10-17T02:34:18.013Z,13.37
2022-10-17T02:39:23.588Z,13.46
2022-10-17T02:44:27.725Z,13.44
2022-10-17T02:49:37.506Z,13.44
2022-10-17T02:54:44.135Z,13.36
2022-10-17T02:59:48.311Z,13.42
2022-10-17T03:04:52.680Z,13.44
2022-10-17T03:09:55.544Z,13.46
2022-10-17T03:14:58.762Z,13.41
2022-10-17T03:20:03.253Z,13.40
2022-10-17T03:25:06.708Z,13.42
2022-10-17T03:30:12.172Z,13.39
2022-10-17T03:35:16.917Z,13.42
2022-10-17T03:40:24.013Z,13.44
2022-10-17T03:45:26.859Z,13.41
2022-10-17T03:50:31.317Z,13.44
2022-10-17T03:55:35.480Z,13.39
2022-10-17T04:00:38.308Z,13.41
2022-10-17T04:05:42.868Z,13.38
2022-10-17T04:10:46.890Z,13.39
2022-10-17T04:15:55.717Z,13.34
2022-10-17T04:21:02.433Z,13.40
2022-10-17T04:26:08.206Z,13.37
2022-10-17T04:31:14.009Z,13.40
2022-10-17T04:36:37.861Z,13.38
2022-10-17T04:41:40.793Z,13.34
2022-10-17T04:46:43.761Z,13.35
2022-10-17T04:51:48.056Z,13.41
2022-10-17T04:56:57.497Z,13.47
2022-10-17T05:02:01.112Z,13.54
2022-10-17T05:07:05.688Z,13.53
2022-10-17T05:12:14.124Z,13.44
2022-10-17T05:17:20.496Z,13.38
2022-10-17T05:22:24.790Z,13.45
2022-10-17T05:27:28.001Z,13.46
2022-10-17T05:32:31.344Z,13.46
2022-10-17T05:37:36.174Z,13.47
2022-10-17T05:47:48.728Z,13.43
2022-10-17T05:52:56.069Z,13.55
2022-10-17T05:58:00.794Z,13.61
2022-10-17T06:03:10.951Z,13.73
2022-10-17T06:08:15.271Z,13.66
2022-10-17T06:13:19.548Z,13.74
2022-10-17T06:18:26.588Z,13.82
2022-10-17T06:23:31.420Z,13.92
2022-10-17T06:28:45.174Z,13.97
2022-10-17T06:33:48.880Z,14.10
2022-10-17T06:38:53.195Z,14.18
2022-10-17T06:44:08.381Z,14.28
2022-10-17T06:49:29.854Z,14.34
2022-10-17T06:54:52.866Z,14.66
2022-10-17T07:00:18.360Z,14.96
2022-10-17T07:05:25.929Z,15.12
2022-10-17T07:10:30.108Z,15.17
2022-10-17T07:15:33.314Z,15.01
2022-10-17T07:20:36.574Z,15.06
2022-10-17T07:25:40.773Z,15.21
2022-10-17T07:30:47.520Z,15.33
2022-10-17T07:35:53.746Z,15.44
2022-10-17T07:40:59.365Z,15.62
2022-10-17T07:46:02.951Z,15.68
2022-10-17T07:51:08.880Z,16.11
2022-10-17T07:56:13.390Z,16.27
2022-10-17T08:01:16.346Z,16.29
2022-10-17T08:06:19.419Z,16.56
2022-10-17T08:11:25.310Z,16.67
2022-10-17T08:16:28.129Z,16.83
2022-10-17T08:21:31.256Z,16.72
2022-10-17T08:26:38.027Z,16.63
2022-10-17T08:31:47.490Z,16.87
2022-10-17T08:36:51.625Z,17.00
2022-10-17T08:42:07.229Z,17.22
2022-10-17T08:47:15.825Z,17.48
2022-10-17T08:52:26.749Z,18.14
2022-10-17T08:57:31.547Z,19.06
2022-10-17T09:02:42.454Z,19.54
2022-10-17T09:07:54.536Z,19.67
2022-10-17T09:13:16.856Z,18.92
2022-10-17T09:18:24.973Z,18.76
2022-10-17T09:23:32.225Z,19.02
2022-10-17T09:28:39.173Z,19.50
2022-10-17T09:33:59.207Z,20.13
2022-10-17T09:39:05.371Z,21.05
2022-10-17T09:44:18.585Z,22.07
2022-10-17T09:49:29.316Z,22.27
2022-10-17T09:54:42.416Z,21.87
2022-10-17T09:59:57.894Z,22.11
2022-10-17T10:05:04.654Z,22.17
2022-10-17T10:10:23.904Z,22.46
2022-10-17T10:15:37.719Z,22.85
2022-10-17T10:20:41.687Z,23.16
2022-10-17T10:25:54.547Z,23.05
2022-10-17T10:31:01.367Z,23.28
2022-10-17T10:36:07.813Z,23.21
2022-10-17T10:41:12.328Z,24.61
2022-10-17T10:46:21.424Z,25.48
2022-10-17T10:51:30.327Z,26.22
2022-10-17T10:56:38.774Z,25.67
2022-10-17T11:01:49.862Z,25.69
2022-10-17T11:06:59.222Z,25.04
2022-10-17T11:12:07.959Z,23.75
2022-10-17T11:17:19.724Z,22.74
2022-10-17T11:22:29.276Z,23.01
2022-10-17T11:27:32.869Z,22.38
2022-10-17T11:32:43.418Z,21.73
2022-10-17T11:37:51.131Z,20.68
2022-10-17T11:43:00.889Z,21.07
2022-10-17T11:48:13.199Z,21.04
2022-10-17T11:53:18.192Z,20.50
2022-10-17T11:58:36.669Z,20.80
2022-10-17T12:04:12.161Z,20.62
2022-10-17T12:09:23.998Z,20.55
2022-10-17T12:14:44.014Z,20.42
2022-10-17T12:19:48.271Z,20.16
2022-10-17T12:24:57.729Z,20.33
2022-10-17T12:30:02.028Z,19.88
2022-10-17T12:35:06.813Z,20.37
2022-10-17T12:40:48.460Z,21.00
2022-10-17T12:45:53.684Z,20.81
2022-10-17T12:51:35.261Z,20.16
2022-10-17T12:56:36.421Z,20.30
2022-10-17T13:01:40.907Z,20.29
2022-10-17T13:06:48.654Z,19.83
2022-10-17T13:11:52.381Z,20.04
2022-10-17T13:16:57.457Z,20.19
2022-10-17T13:22:07.063Z,20.37
2022-10-17T13:27:24.537Z,20.47
2022-10-17T13:32:37.718Z,20.60
2022-10-17T13:37:43.483Z,20.61
2022-10-17T13:42:47.033Z,20.64
2022-10-17T13:47:49.961Z,20.71
2022-10-17T13:53:19.489Z,20.29
2022-10-17T13:58:22.462Z,20.32
2022-10-17T14:03:32.538Z,20.35
2022-10-17T14:08:55.244Z,20.06
2022-10-17T14:13:59.187Z,19.83
2022-10-17T14:19:02.066Z,19.59
2022-10-17T14:24:27.330Z,19.28
2022-10-17T14:29:31.896Z,19.80
2022-10-17T14:34:36.770Z,19.79
2022-10-17T14:39:40.994Z,19.97
2022-10-17T14:44:43.828Z,19.77
2022-10-17T14:49:50.857Z,19.34
2022-10-17T14:54:55.303Z,19.28
2022-10-17T14:59:58.159Z,19.37
2022-10-17T15:05:00.880Z,19.50
2022-10-17T15:10:06.072Z,19.69
2022-10-17T15:15:09.510Z,19.62
2022-10-17T15:20:15.811Z,19.58
2022-10-17T15:25:19.985Z,19.61
2022-10-17T15:30:26.341Z,19.75
2022-10-17T15:35:30.016Z,19.60
2022-10-17T15:40:34.256Z,19.70
2022-10-17T15:45:37.773Z,19.60
2022-10-17T15:50:40.512Z,19.53
2022-10-17T15:55:44.695Z,19.36
2022-10-17T16:00:48.567Z,19.35
2022-10-17T16:05:51.348Z,19.27
2022-10-17T16:10:55.616Z,18.94
2022-10-17T16:15:58.478Z,19.04
2022-10-17T16:21:01.233Z,18.92
2022-10-17T16:26:05.423Z,18.33
2022-10-17T16:31:19.209Z,18.46
2022-10-17T16:36:22.235Z,18.79
2022-10-17T16:41:28.631Z,18.62
2022-10-17T16:46:32.635Z,18.21
2022-10-17T16:51:36.653Z,17.56
2022-10-17T16:56:42.088Z,17.21
2022-10-17T17:01:44.843Z,17.12
2022-10-17T17:06:47.542Z,17.30
2022-10-17T17:11:51.685Z,17.36
2022-10-17T17:16:54.528Z,17.11
2022-10-17T17:21:57.324Z,17.23
2022-10-17T17:27:01.452Z,17.26
2022-10-17T17:32:04.252Z,17.19
2022-10-17T17:37:07.115Z,17.05
2022-10-17T17:42:11.253Z,16.79
2022-10-17T17:47:14.370Z,16.77
2022-10-17T17:52:17.118Z,16.76
2022-10-17T17:57:21.308Z,16.75
2022-10-17T18:02:24.061Z,16.75
2022-10-17T18:07:27.219Z,16.77
2022-10-17T18:12:31.815Z,16.73
2022-10-17T18:17:35.483Z,16.50
2022-10-17T18:22:38.272Z,16.59
2022-10-17T18:27:42.583Z,16.58
2022-10-17T18:32:45.365Z,16.75
2022-10-17T18:37:49.846Z,16.81
2022-10-17T18:42:54.045Z,16.75
2022-10-17T18:47:56.837Z,16.62
2022-10-17T18:52:59.972Z,16.66
2022-10-17T18:58:04.116Z,16.48
2022-10-17T19:03:07.651Z,16.52
2022-10-17T19:08:10.430Z,16.50
2022-10-17T19:13:19.217Z,16.56
2022-10-17T19:18:23.562Z,16.49
2022-10-17T19:23:26.316Z,16.53
2022-10-17T19:28:30.698Z,16.55
2022-10-17T19:33:35.369Z,16.33
2022-10-17T19:38:38.336Z,16.43
2022-10-17T19:43:44.508Z,16.61
2022-10-17T19:48:48.984Z,16.54
2022-10-17T19:53:52.564Z,16.54
2022-10-17T19:58:57.233Z,16.32
2022-10-17T20:04:00.007Z,16.44
2022-10-17T20:09:02.832Z,16.28
2022-10-17T20:14:07.349Z,16.18
2022-10-17T20:19:13.546Z,16.27
2022-10-17T20:24:17.809Z,16.26
2022-10-17T20:29:23.967Z,16.03
2022-10-17T20:34:26.736Z,15.75
2022-10-17T20:39:30.388Z,16.09
2022-10-17T20:44:34.618Z,15.94
2022-10-17T20:49:37.463Z,16.18
2022-10-17T20:54:40.377Z,16.31
2022-10-17T20:59:45.605Z,16.19
2022-10-17T21:04:49.854Z,16.33
2022-10-17T21:09:52.648Z,16.45
2022-10-17T21:14:56.828Z,16.51
2022-10-17T21:19:59.635Z,16.54
2022-10-17T21:25:02.570Z,16.60
2022-10-17T21:35:15.856Z,16.51
2022-10-17T21:40:18.698Z,16.52
2022-10-17T21:45:25.761Z,16.46
2022-10-17T21:50:29.313Z,16.32
2022-10-17T21:55:32.043Z,16.09
2022-10-17T22:00:36.181Z,16.06
2022-10-17T22:05:38.920Z,16.14
2022-10-17T22:10:41.977Z,16.18
2022-10-17T22:15:46.101Z,16.06
2022-10-17T22:20:48.882Z,16.19
2022-10-17T22:25:54.882Z,16.17
2022-10-17T22:30:59.288Z,16.23
2022-10-17T22:36:02.543Z,16.21
2022-10-17T22:41:05.992Z,16.15
2022-10-17T22:46:13.445Z,16.12
2022-10-17T22:51:16.353Z,16.09
2022-10-17T22:56:21.467Z,16.11
2022-10-17T23:01:26.628Z,16.07
2022-10-17T23:06:29.506Z,16.01
2022-10-17T23:11:32.310Z,15.97
2022-10-17T23:16:36.409Z,15.94
2022-10-17T23:21:39.148Z,15.93
2022-10-17T23:26:41.904Z,15.89
2022-10-17T23:31:46.115Z,15.86
2022-10-17T23:36:49.201Z,15.83
2022-10-17T23:41:51.965Z,15.78
2022-10-17T23:46:56.092Z,15.78
2022-10-17T23:51:58.861Z,15.77
2022-10-17T23:57:01.691Z,15.78
